createdAt,value
2019-02-15T00:00:35.670Z,11.37
2019-02-15T00:03:06.723Z,11.70
2019-02-15T00:05:35.906Z,11.30
2019-02-15T00:08:05.445Z,11.67
2019-02-15T00:10:34.597Z,10.05
2019-02-15T00:13:13.025Z,11.43
2019-02-15T00:15:35.691Z,12.10
2019-02-15T00:18:23.835Z,12.37
2019-02-15T00:20:57.694Z,11.57
2019-02-15T00:23:27.204Z,11.10
2019-02-15T00:25:57.119Z,10.33
2019-02-15T00:28:26.265Z,11.53
2019-02-15T00:30:55.418Z,10.80
2019-02-15T00:33:25.915Z,11.67
2019-02-15T00:35:55.083Z,11.33
2019-02-15T00:38:24.412Z,9.70
2019-02-15T00:40:54.181Z,10.90
2019-02-15T00:43:23.353Z,10.80
2019-02-15T00:46:04.166Z,10.17
2019-02-15T00:48:33.653Z,11.33
2019-02-15T00:51:32.915Z,11.27
2019-02-15T00:54:12.363Z,11.80
2019-02-15T00:56:49.358Z,10.83
2019-02-15T00:59:43.753Z,11.53
2019-02-15T01:02:18.640Z,10.77
2019-02-15T01:05:09.866Z,11.60
2019-02-15T01:07:58.248Z,11.80
2019-02-15T01:10:36.300Z,12.83
2019-02-15T01:13:11.590Z,11.30
2019-02-15T01:15:40.767Z,10.60
2019-02-15T01:18:10.012Z,10.40
2019-02-15T01:20:39.780Z,12.27
2019-02-15T01:23:08.977Z,10.37
2019-02-15T01:25:44.510Z,12.30
2019-02-15T01:28:23.103Z,11.63
2019-02-15T01:31:11.184Z,9.70
2019-02-15T01:33:51.088Z,10.37
2019-02-15T01:36:38.979Z,10.87
2019-02-15T01:39:26.907Z,10.00
2019-02-15T01:42:10.516Z,9.53
2019-02-15T01:44:59.401Z,10.30
2019-02-15T01:47:35.787Z,9.33
2019-02-15T01:50:05.823Z,9.20
2019-02-15T01:52:35.036Z,8.50
2019-02-15T01:55:04.629Z,9.63
2019-02-15T01:57:34.159Z,9.10
2019-02-15T02:00:05.504Z,8.97
2019-02-15T02:02:34.897Z,9.80
2019-02-15T02:05:04.298Z,10.57
2019-02-15T02:07:33.459Z,9.53
2019-02-15T02:10:02.996Z,8.10
2019-02-15T02:12:32.559Z,8.70
2019-02-15T02:15:02.150Z,9.90
2019-02-15T02:17:31.901Z,9.27
2019-02-15T02:20:01.767Z,9.40
2019-02-15T02:22:31.214Z,10.00
2019-02-15T02:25:00.730Z,8.50
2019-02-15T02:27:30.573Z,8.80
2019-02-15T02:30:01.553Z,9.00
2019-02-15T02:32:30.742Z,9.63
2019-02-15T02:34:59.897Z,7.57
2019-02-15T02:37:29.151Z,6.23
2019-02-15T02:39:58.365Z,6.30
2019-02-15T02:42:27.485Z,5.70
2019-02-15T02:44:56.871Z,5.60
2019-02-15T02:47:26.387Z,4.10
2019-02-15T02:49:55.563Z,4.73
2019-02-15T02:52:25.112Z,4.27
2019-02-15T02:54:54.263Z,4.07
2019-02-15T02:57:23.431Z,4.03
2019-02-15T02:59:52.923Z,4.20
2019-02-15T03:02:22.183Z,3.47
2019-02-15T03:04:51.692Z,3.07
2019-02-15T03:07:21.011Z,3.33
2019-02-15T03:09:50.158Z,3.63
2019-02-15T03:12:19.333Z,3.67
2019-02-15T03:14:48.867Z,3.33
2019-02-15T03:17:18.296Z,3.17
2019-02-15T03:19:47.475Z,3.40
2019-02-15T03:22:17.294Z,3.20
2019-02-15T03:24:46.451Z,3.80
2019-02-15T03:27:15.635Z,3.33
2019-02-15T03:29:44.831Z,3.20
2019-02-15T03:32:14.360Z,3.80
2019-02-15T03:34:44.642Z,3.20
2019-02-15T03:37:33.815Z,3.70
2019-02-15T03:40:21.912Z,3.53
2019-02-15T03:42:51.114Z,3.60
2019-02-15T03:45:21.432Z,3.83
2019-02-15T03:47:50.603Z,3.00
2019-02-15T03:50:21.771Z,3.10
2019-02-15T03:52:50.897Z,3.20
2019-02-15T03:55:20.354Z,3.40
2019-02-15T03:57:49.930Z,3.47
2019-02-15T04:00:19.521Z,3.00
2019-02-15T04:02:48.996Z,3.47
2019-02-15T04:05:18.154Z,3.03
2019-02-15T04:07:47.982Z,2.83
2019-02-15T04:10:17.523Z,3.00
2019-02-15T04:12:47.087Z,2.90
2019-02-15T04:15:16.226Z,3.10
2019-02-15T04:17:45.753Z,3.40
2019-02-15T04:20:15.225Z,3.77
2019-02-15T04:22:44.987Z,4.03
2019-02-15T04:25:14.599Z,3.30
2019-02-15T04:27:44.435Z,3.77
2019-02-15T04:30:13.608Z,3.30
2019-02-15T04:32:44.582Z,4.10
2019-02-15T04:35:14.264Z,4.30
2019-02-15T04:37:43.821Z,4.20
2019-02-15T04:40:12.945Z,5.00
2019-02-15T04:42:42.396Z,4.40
2019-02-15T04:45:11.599Z,4.50
2019-02-15T04:47:41.104Z,4.90
2019-02-15T04:50:10.956Z,4.10
2019-02-15T04:52:40.863Z,4.10
2019-02-15T04:55:10.372Z,4.47
2019-02-15T04:57:39.914Z,4.57
2019-02-15T05:00:09.095Z,4.77
2019-02-15T05:02:38.663Z,4.80
2019-02-15T05:05:08.817Z,4.20
2019-02-15T05:07:38.256Z,4.70
2019-02-15T05:10:07.435Z,4.83
2019-02-15T05:12:36.679Z,5.40
2019-02-15T05:15:06.424Z,4.73
2019-02-15T05:17:35.568Z,4.47
2019-02-15T05:20:04.848Z,5.03
2019-02-15T05:22:34.010Z,4.43
2019-02-15T05:25:03.441Z,4.33
2019-02-15T05:27:33.347Z,4.73
2019-02-15T05:30:03.041Z,4.40
2019-02-15T05:32:32.565Z,4.97
2019-02-15T05:35:01.787Z,4.60
2019-02-15T05:37:31.186Z,5.23
2019-02-15T05:40:01.817Z,4.80
2019-02-15T05:42:31.381Z,5.07
2019-02-15T05:45:03.661Z,6.27
2019-02-15T05:47:31.414Z,6.20
2019-02-15T05:50:00.918Z,6.37
2019-02-15T05:52:30.424Z,6.87
2019-02-15T05:54:59.610Z,6.70
2019-02-15T05:57:28.774Z,6.40
2019-02-15T05:59:57.977Z,6.03
2019-02-15T06:02:27.169Z,7.50
2019-02-15T06:04:56.316Z,6.93
2019-02-15T06:07:25.446Z,7.60
2019-02-15T06:09:54.618Z,7.17
2019-02-15T06:12:24.156Z,7.33
2019-02-15T06:14:53.314Z,6.93
2019-02-15T06:17:22.836Z,7.80
2019-02-15T06:19:52.055Z,7.00
2019-02-15T06:22:21.194Z,8.07
2019-02-15T06:24:50.330Z,8.10
2019-02-15T06:27:19.499Z,9.00
2019-02-15T06:29:48.719Z,8.60
2019-02-15T06:32:18.291Z,8.17
2019-02-15T06:34:47.498Z,8.30
2019-02-15T06:37:16.725Z,8.60
2019-02-15T06:39:45.890Z,9.23
2019-02-15T06:42:15.098Z,9.07
2019-02-15T06:44:44.318Z,9.00
2019-02-15T06:47:13.855Z,9.20
2019-02-15T06:49:43.385Z,8.90
2019-02-15T06:52:12.588Z,9.38
2019-02-15T06:54:41.796Z,8.40
2019-02-15T06:57:11.444Z,9.53
2019-02-15T07:00:05.593Z,8.60
2019-02-15T07:02:44.384Z,8.70
2019-02-15T07:05:25.747Z,8.70
2019-02-15T07:07:55.580Z,8.43
2019-02-15T07:10:24.750Z,9.50
2019-02-15T07:12:53.934Z,8.93
2019-02-15T07:15:23.588Z,8.47
2019-02-15T07:17:53.179Z,9.03
2019-02-15T07:20:22.986Z,9.30
2019-02-15T07:22:52.580Z,9.27
2019-02-15T07:25:22.085Z,8.93
2019-02-15T07:27:51.363Z,9.53
2019-02-15T07:30:20.917Z,10.15
2019-02-15T07:32:50.402Z,10.90
2019-02-15T07:35:19.613Z,9.53
2019-02-15T07:37:48.781Z,10.77
2019-02-15T07:40:17.927Z,9.73
2019-02-15T07:42:47.390Z,9.07
2019-02-15T07:45:17.893Z,10.80
2019-02-15T07:47:47.272Z,63.47
2019-02-15T07:50:16.863Z,30.33
2019-02-15T07:52:46.063Z,14.77
2019-02-15T07:55:15.258Z,14.03
2019-02-15T07:57:44.458Z,8.93
2019-02-15T08:00:14.314Z,7.60
2019-02-15T08:02:43.796Z,8.60
2019-02-15T08:05:13.268Z,6.33
2019-02-15T08:07:42.563Z,6.17
2019-02-15T08:10:12.046Z,6.23
2019-02-15T08:12:41.205Z,5.87
2019-02-15T08:15:10.911Z,5.40
2019-02-15T08:17:40.085Z,6.10
2019-02-15T08:20:10.452Z,5.13
2019-02-15T08:22:39.600Z,4.80
2019-02-15T08:25:08.849Z,5.57
2019-02-15T08:27:38.026Z,4.70
2019-02-15T08:30:08.351Z,5.53
2019-02-15T08:32:37.557Z,5.70
2019-02-15T08:35:07.538Z,4.90
2019-02-15T08:37:36.753Z,4.50
2019-02-15T08:40:07.054Z,4.40
2019-02-15T08:42:36.274Z,4.57
2019-02-15T08:45:06.584Z,3.80
2019-02-15T08:47:35.803Z,4.80
2019-02-15T08:50:05.399Z,3.70
2019-02-15T08:52:34.622Z,4.30
2019-02-15T08:55:03.731Z,3.73
2019-02-15T08:57:34.328Z,5.03
2019-02-15T09:00:03.518Z,3.07
2019-02-15T09:02:32.989Z,3.87
2019-02-15T09:05:02.422Z,3.70
2019-02-15T09:07:32.050Z,4.13
2019-02-15T09:10:02.171Z,4.13
2019-02-15T09:12:31.703Z,4.20
2019-02-15T09:15:01.611Z,3.43
2019-02-15T09:17:30.749Z,3.47
2019-02-15T09:19:59.921Z,3.20
2019-02-15T09:22:29.083Z,4.13
2019-02-15T09:24:58.559Z,3.80
2019-02-15T09:27:49.766Z,3.70
2019-02-15T09:30:18.942Z,3.47
2019-02-15T09:32:48.110Z,3.57
2019-02-15T09:35:17.308Z,3.60
2019-02-15T09:37:46.479Z,4.00
2019-02-15T09:40:16.402Z,3.93
2019-02-15T09:42:45.642Z,3.97
2019-02-15T09:45:15.020Z,3.60
2019-02-15T09:47:44.295Z,3.63
2019-02-15T09:50:13.476Z,4.60
2019-02-15T09:52:42.660Z,4.10
2019-02-15T09:55:11.834Z,3.67
2019-02-15T09:57:41.318Z,4.77
2019-02-15T10:00:10.498Z,4.43
2019-02-15T10:02:39.621Z,3.80
2019-02-15T10:05:08.822Z,4.40
2019-02-15T10:07:38.000Z,4.20
2019-02-15T10:10:07.547Z,4.00
2019-02-15T10:12:37.266Z,4.23
2019-02-15T10:15:06.568Z,4.63
2019-02-15T10:17:35.672Z,4.60
2019-02-15T10:20:05.111Z,4.60
2019-02-15T10:22:35.075Z,4.60
2019-02-15T10:25:04.324Z,5.07
2019-02-15T10:27:33.497Z,4.60
2019-02-15T10:30:04.822Z,5.10
2019-02-15T10:32:34.301Z,5.10
2019-02-15T10:35:03.488Z,4.90
2019-02-15T10:37:32.615Z,4.97
2019-02-15T10:40:02.118Z,4.50
2019-02-15T10:42:31.265Z,4.50
2019-02-15T10:45:00.801Z,4.20
2019-02-15T10:47:31.773Z,5.60
2019-02-15T10:50:01.640Z,5.10
2019-02-15T10:52:32.304Z,5.20
2019-02-15T10:55:01.474Z,5.10
2019-02-15T10:57:30.636Z,5.03
2019-02-15T10:59:59.822Z,4.87
2019-02-15T11:02:29.345Z,4.93
2019-02-15T11:04:58.548Z,5.50
2019-02-15T11:07:29.674Z,4.83
2019-02-15T11:09:58.836Z,4.93
2019-02-15T11:12:28.062Z,5.17
2019-02-15T11:14:57.233Z,4.80
2019-02-15T11:17:26.470Z,4.80
2019-02-15T11:19:55.903Z,4.50
2019-02-15T11:22:25.392Z,4.97
2019-02-15T11:24:54.603Z,4.90
2019-02-15T11:27:23.790Z,4.77
2019-02-15T11:29:53.288Z,4.67
2019-02-15T11:32:22.770Z,4.67
2019-02-15T11:34:51.925Z,4.60
2019-02-15T11:37:21.811Z,4.33
2019-02-15T11:39:50.997Z,4.00
2019-02-15T11:42:20.128Z,4.93
2019-02-15T11:44:49.720Z,4.60
2019-02-15T11:47:19.184Z,4.47
2019-02-15T11:49:48.405Z,4.47
2019-02-15T11:52:17.636Z,4.30
2019-02-15T11:54:47.093Z,4.50
2019-02-15T11:57:16.313Z,4.30
2019-02-15T11:59:45.519Z,4.40
2019-02-15T12:02:15.142Z,4.50
2019-02-15T12:04:44.277Z,4.13
2019-02-15T12:07:13.806Z,4.07
2019-02-15T12:09:43.007Z,4.37
2019-02-15T12:12:13.539Z,4.03
2019-02-15T12:14:43.065Z,4.13
2019-02-15T12:17:12.224Z,4.57
2019-02-15T12:19:41.766Z,4.67
2019-02-15T12:22:10.920Z,4.60
2019-02-15T12:24:40.125Z,4.73
2019-02-15T12:27:09.600Z,4.50
2019-02-15T12:29:38.805Z,3.60
2019-02-15T12:32:07.981Z,4.93
2019-02-15T12:34:37.558Z,4.20
2019-02-15T12:37:07.373Z,4.50
2019-02-15T12:39:36.599Z,4.13
2019-02-15T12:42:06.082Z,3.90
2019-02-15T12:44:35.838Z,3.73
2019-02-15T12:47:14.512Z,4.30
2019-02-15T12:49:36.290Z,3.87
2019-02-15T12:52:05.907Z,3.80
2019-02-15T12:54:35.156Z,4.00
2019-02-15T12:57:04.646Z,3.93
2019-02-15T12:59:33.806Z,4.20
2019-02-15T13:02:02.984Z,4.53
2019-02-15T13:04:32.122Z,3.90
2019-02-15T13:07:01.310Z,4.13
2019-02-15T13:09:30.556Z,3.67
2019-02-15T13:11:59.685Z,3.97
2019-02-15T13:14:29.141Z,4.03
2019-02-15T13:16:58.320Z,5.00
2019-02-15T13:19:27.831Z,3.60
2019-02-15T13:21:57.007Z,3.80
2019-02-15T13:24:26.176Z,3.57
2019-02-15T13:26:55.381Z,3.60
2019-02-15T13:29:24.567Z,3.83
2019-02-15T13:31:55.997Z,3.70
2019-02-15T13:34:25.255Z,3.83
2019-02-15T13:36:54.400Z,3.87
2019-02-15T13:39:23.560Z,3.80
2019-02-15T13:41:53.136Z,3.80
2019-02-15T13:44:22.922Z,4.10
2019-02-15T13:46:52.833Z,3.90
2019-02-15T13:49:21.978Z,3.67
2019-02-15T13:51:51.123Z,4.17
2019-02-15T13:54:20.389Z,4.00
2019-02-15T13:56:49.566Z,3.63
2019-02-15T13:59:20.166Z,4.20
2019-02-15T14:01:49.357Z,4.33
2019-02-15T14:04:18.550Z,4.10
2019-02-15T14:06:54.295Z,4.47
2019-02-15T14:09:23.894Z,4.10
2019-02-15T14:11:53.093Z,4.50
2019-02-15T14:14:22.637Z,4.67
2019-02-15T14:16:52.130Z,4.17
2019-02-15T14:19:21.538Z,4.20
2019-02-15T14:21:50.825Z,3.87
2019-02-15T14:24:19.977Z,4.20
2019-02-15T14:26:49.170Z,4.43
2019-02-15T14:29:19.078Z,4.10
2019-02-15T14:31:48.828Z,4.50
2019-02-15T14:34:18.069Z,4.77
2019-02-15T14:36:47.781Z,5.30
2019-02-15T14:39:17.360Z,4.40
2019-02-15T14:41:47.279Z,5.40
2019-02-15T14:44:16.784Z,5.30
2019-02-15T14:46:46.985Z,5.17
2019-02-15T14:49:16.365Z,5.40
2019-02-15T14:51:45.565Z,5.60
2019-02-15T14:54:15.459Z,4.77
2019-02-15T14:56:45.057Z,4.50
2019-02-15T14:59:15.018Z,5.20
2019-02-15T15:01:44.763Z,4.93
2019-02-15T15:04:14.281Z,4.70
2019-02-15T15:06:43.603Z,4.60
2019-02-15T15:09:12.809Z,4.97
2019-02-15T15:11:41.990Z,5.13
2019-02-15T15:14:11.311Z,5.33
2019-02-15T15:16:40.894Z,5.17
2019-02-15T15:19:10.386Z,5.40
2019-02-15T15:21:39.620Z,6.20
2019-02-15T15:24:08.822Z,5.20
2019-02-15T15:26:39.007Z,5.43
2019-02-15T15:29:08.529Z,5.17
2019-02-15T15:31:37.689Z,5.60
2019-02-15T15:34:06.883Z,4.83
2019-02-15T15:36:36.747Z,5.40
2019-02-15T15:39:06.856Z,5.30
2019-02-15T15:41:36.371Z,5.20
2019-02-15T15:44:05.858Z,5.90
2019-02-15T15:46:35.011Z,5.10
2019-02-15T15:49:04.489Z,10.47
2019-02-15T15:51:33.932Z,12.63
2019-02-15T15:54:03.160Z,13.70
2019-02-15T15:56:32.397Z,13.47
2019-02-15T15:59:03.640Z,15.97
2019-02-15T16:01:33.512Z,27.20
2019-02-15T16:04:02.691Z,13.90
2019-02-15T16:06:31.859Z,26.23
2019-02-15T16:09:01.064Z,13.83
2019-02-15T16:11:32.486Z,8.87
2019-02-15T16:14:01.165Z,8.60
2019-02-15T16:16:30.378Z,7.70
2019-02-15T16:18:59.570Z,8.17
2019-02-15T16:21:28.728Z,8.00
2019-02-15T16:23:58.035Z,7.13
2019-02-15T16:26:27.931Z,8.40
2019-02-15T16:28:57.397Z,7.80
2019-02-15T16:31:26.803Z,5.50
2019-02-15T16:33:55.966Z,5.97
2019-02-15T16:36:26.329Z,5.80
2019-02-15T16:38:55.699Z,6.00
2019-02-15T16:41:24.923Z,5.20
2019-02-15T16:43:54.109Z,6.50
2019-02-15T16:46:23.551Z,6.93
2019-02-15T16:48:52.757Z,6.30
2019-02-15T16:51:21.973Z,6.00
2019-02-15T16:53:53.610Z,6.07
2019-02-15T16:56:22.808Z,8.30
2019-02-15T16:58:52.147Z,6.30
2019-02-15T17:01:22.116Z,6.07
2019-02-15T17:03:51.279Z,5.80
2019-02-15T17:06:23.290Z,5.80
2019-02-15T17:08:52.253Z,6.67
2019-02-15T17:11:22.134Z,6.20
2019-02-15T17:13:51.621Z,6.10
2019-02-15T17:16:20.933Z,6.60
2019-02-15T17:18:52.251Z,7.70
2019-02-15T17:21:21.264Z,6.90
2019-02-15T17:23:52.364Z,7.20
2019-02-15T17:26:22.321Z,6.87
2019-02-15T17:28:52.548Z,7.70
2019-02-15T17:31:21.919Z,7.50
2019-02-15T17:33:51.060Z,8.80
2019-02-15T17:36:20.316Z,8.90
2019-02-15T17:38:49.957Z,9.77
2019-02-15T17:41:19.155Z,12.83
2019-02-15T17:43:48.741Z,15.10
2019-02-15T17:46:18.553Z,14.60
2019-02-15T17:48:48.121Z,17.23
2019-02-15T17:51:17.358Z,22.27
2019-02-15T17:53:47.143Z,23.67
2019-02-15T17:56:16.331Z,25.10
2019-02-15T17:58:45.528Z,22.57
2019-02-15T18:01:16.814Z,21.73
2019-02-15T18:03:46.455Z,20.57
2019-02-15T18:06:16.006Z,21.00
2019-02-15T18:08:45.222Z,20.30
2019-02-15T18:11:14.426Z,20.90
2019-02-15T18:13:43.700Z,23.67
2019-02-15T18:16:14.527Z,21.07
2019-02-15T18:18:44.060Z,20.80
2019-02-15T18:21:13.292Z,17.93
2019-02-15T18:23:44.077Z,19.00
2019-02-15T18:26:13.709Z,19.17
2019-02-15T18:28:42.945Z,17.80
2019-02-15T18:31:13.335Z,14.17
2019-02-15T18:33:45.206Z,12.23
2019-02-15T18:36:14.821Z,13.80
2019-02-15T18:38:44.604Z,15.20
2019-02-15T18:41:16.450Z,14.70
2019-02-15T18:43:46.398Z,13.30
2019-02-15T18:46:16.200Z,13.23
2019-02-15T18:48:45.900Z,14.43
2019-02-15T18:51:15.758Z,14.23
2019-02-15T18:53:45.707Z,12.57
2019-02-15T18:56:16.072Z,12.87
2019-02-15T18:58:46.272Z,12.63
2019-02-15T19:01:16.008Z,12.00
2019-02-15T19:03:45.431Z,11.37
2019-02-15T19:06:16.031Z,12.70
2019-02-15T19:08:45.221Z,11.53
2019-02-15T19:11:16.546Z,12.47
2019-02-15T19:13:46.199Z,13.87
2019-02-15T19:16:15.726Z,15.67
2019-02-15T19:18:45.332Z,17.23
2019-02-15T19:21:15.852Z,17.97
2019-02-15T19:23:46.306Z,18.10
2019-02-15T19:26:16.117Z,19.70
2019-02-15T19:28:46.664Z,17.50
2019-02-15T19:31:16.361Z,18.40
2019-02-15T19:33:45.827Z,17.50
2019-02-15T19:36:15.197Z,16.00
2019-02-15T19:38:44.733Z,16.67
2019-02-15T19:41:15.478Z,16.00
2019-02-15T19:43:45.696Z,16.43
2019-02-15T19:46:16.226Z,16.87
2019-02-15T19:48:46.643Z,28.20
2019-02-15T19:51:16.392Z,18.53
2019-02-15T19:53:46.589Z,15.27
2019-02-15T19:56:15.961Z,12.80
2019-02-15T19:58:45.902Z,14.00
2019-02-15T20:01:17.883Z,14.57
2019-02-15T20:03:47.082Z,16.10
2019-02-15T20:06:16.255Z,13.43
2019-02-15T20:08:46.051Z,14.20
2019-02-15T20:11:15.294Z,15.30
2019-02-15T20:13:44.854Z,15.93
2019-02-15T20:16:14.169Z,15.87
2019-02-15T20:18:44.203Z,16.00
2019-02-15T20:21:13.749Z,15.87
2019-02-15T20:23:43.355Z,16.90
2019-02-15T20:26:13.302Z,16.77
2019-02-15T20:28:43.704Z,17.23
2019-02-15T20:31:14.443Z,17.80
2019-02-15T20:33:44.232Z,18.30
2019-02-15T20:36:14.601Z,18.13
2019-02-15T20:38:44.664Z,23.83
2019-02-15T20:41:15.822Z,31.53
2019-02-15T20:43:45.828Z,38.30
2019-02-15T20:46:15.104Z,29.53
2019-02-15T20:48:44.843Z,34.40
2019-02-15T20:51:14.754Z,33.10
2019-02-15T20:53:44.699Z,30.13
2019-02-15T20:56:13.843Z,27.07
2019-02-15T20:58:43.737Z,26.50
2019-02-15T21:01:13.773Z,27.50
2019-02-15T21:03:43.973Z,26.83
2019-02-15T21:06:14.648Z,24.40
2019-02-15T21:08:44.276Z,23.80
2019-02-15T21:11:13.486Z,23.00
2019-02-15T21:13:43.343Z,22.83
2019-02-15T21:16:12.500Z,22.83
2019-02-15T21:18:41.658Z,23.67
2019-02-15T21:21:11.204Z,23.00
2019-02-15T21:23:40.424Z,22.53
2019-02-15T21:26:10.362Z,21.53
2019-02-15T21:28:39.509Z,22.47
2019-02-15T21:31:09.050Z,23.07
2019-02-15T21:33:38.613Z,21.50
2019-02-15T21:36:09.995Z,20.30
2019-02-15T21:38:39.475Z,20.83
2019-02-15T21:41:08.689Z,17.70
2019-02-15T21:43:38.363Z,17.90
2019-02-15T21:46:07.858Z,11.80
2019-02-15T21:48:37.028Z,12.30
2019-02-15T21:51:06.244Z,10.23
2019-02-15T21:53:35.767Z,12.27
2019-02-15T21:56:04.983Z,9.97
2019-02-15T21:58:34.224Z,10.37
2019-02-15T22:01:05.271Z,8.77
2019-02-15T22:03:34.538Z,8.00
2019-02-15T22:06:04.682Z,8.30
2019-02-15T22:08:34.094Z,6.60
2019-02-15T22:11:03.927Z,6.80
2019-02-15T22:13:34.913Z,5.70
2019-02-15T22:16:04.572Z,4.10
2019-02-15T22:18:34.386Z,4.57
2019-02-15T22:21:03.558Z,4.78
2019-02-15T22:23:32.836Z,4.30
2019-02-15T22:26:02.075Z,5.00
2019-02-15T22:28:32.704Z,4.60
2019-02-15T22:31:02.203Z,4.60
2019-02-15T22:33:32.796Z,4.27
2019-02-15T22:36:02.241Z,5.70
2019-02-15T22:38:32.877Z,5.13
2019-02-15T22:41:10.931Z,5.93
2019-02-15T22:43:40.629Z,5.63
2019-02-15T22:46:09.861Z,5.77
2019-02-15T22:48:39.408Z,4.90
2019-02-15T22:51:08.597Z,5.30
2019-02-15T22:53:37.813Z,5.80
2019-02-15T22:56:07.108Z,4.47
2019-02-15T22:58:38.371Z,4.27
2019-02-15T23:01:11.056Z,4.90
2019-02-15T23:03:40.188Z,4.60
2019-02-15T23:06:09.383Z,4.60
2019-02-15T23:08:38.530Z,4.67
2019-02-15T23:11:08.341Z,4.00
2019-02-15T23:13:37.543Z,4.37
2019-02-15T23:16:06.913Z,4.07
2019-02-15T23:18:36.056Z,4.63
2019-02-15T23:21:05.212Z,4.87
2019-02-15T23:23:34.691Z,4.37
2019-02-15T23:26:03.825Z,5.23
2019-02-15T23:28:33.186Z,4.13
2019-02-15T23:31:02.391Z,5.17
2019-02-15T23:33:31.872Z,4.67
2019-02-15T23:36:01.388Z,5.50
2019-02-15T23:38:30.637Z,5.40
2019-02-15T23:40:59.816Z,4.63
2019-02-15T23:43:29.036Z,4.40
2019-02-15T23:45:58.974Z,5.10
2019-02-15T23:48:28.126Z,5.23
2019-02-15T23:50:57.642Z,5.67
2019-02-15T23:53:26.878Z,6.30
2019-02-15T23:55:56.089Z,5.80
2019-02-15T23:58:25.323Z,5.23
